Main page
METAR-TAF:

METAR-TAF

Airports :

Kalaleh Airport

Kalaleh, Iran

latitude: 37-22-60N, longitude: 55-27-07E, elevation: 130 m

Current weather observation

The report was made 58 minutes ago, at 23:00 UTC
Wind 2 kt from the East/Northeast
Temperature 14°C
Humidity 88%
Pressure 1013 hPa

METAR: OINE 222300Z AUTO 06002KT //// // ////// 14/12 Q1013

Time: 04:28 (23:58 UTC)


TAF: missing

Weather observations and forecasts of more than 4000 airports (METAR and TAF reports).

The available stations are represented by yellow and red dots on the map.

Hover mouse over dot to see the name of the station.

Then click to see weather observations and forecasts.

To change the map : click on the green buttons with a black cross to zoom in, on the green button with a dash to zoom out, or on the green arrows for adjacent maps.


METAR-TAF: